Terminal Aerodrome Forecast
Issued by NWS

Home | Current Version | Previous Version | Text Only | Print | Product List | Glossary On
Versions: 1 2 3 4 5 6 7 8 9 10 11 12 13 14 15 16 17 18 19 20 21
064
FTUS43 KLSX 260225 AAA
TAFSUS
TAF AMD
KSUS 260225Z 2602/2624 29008KT P6SM -SHRA VCTS BKN080CB
     FM260400 30008KT P6SM BKN070
     FM260600 30008KT 6SM -SHRA OVC050
     FM261000 29007KT P6SM BKN100
     FM261600 31010G18KT P6SM SKC=

USA.gov is the U.S. government's official web portal to all federal, state and local government web resources and services.